sensor_id;sensor_type;location;lat;lon;timestamp;P1;durP1;ratioP1;P2;durP2;ratioP2
61903;SDS011;47857;52.270;6.804;2023-04-09T00:01:25;48.85;;;32.22;;
61903;SDS011;47857;52.270;6.804;2023-04-09T00:03:51;48.08;;;32.53;;
61903;SDS011;47857;52.270;6.804;2023-04-09T00:06:17;48.70;;;31.65;;
61903;SDS011;47857;52.270;6.804;2023-04-09T00:08:42;47.78;;;31.55;;
61903;SDS011;47857;52.270;6.804;2023-04-09T00:11:08;48.42;;;32.13;;
61903;SDS011;47857;52.270;6.804;2023-04-09T00:13:33;46.10;;;31.85;;
61903;SDS011;47857;52.270;6.804;2023-04-09T00:15:59;48.90;;;31.42;;
61903;SDS011;47857;52.270;6.804;2023-04-09T00:18:25;46.63;;;31.55;;
61903;SDS011;47857;52.270;6.804;2023-04-09T00:20:50;44.72;;;31.23;;
61903;SDS011;47857;52.270;6.804;2023-04-09T00:23:16;45.90;;;31.42;;
61903;SDS011;47857;52.270;6.804;2023-04-09T00:25:42;49.50;;;32.22;;
61903;SDS011;47857;52.270;6.804;2023-04-09T00:28:07;44.95;;;31.23;;
61903;SDS011;47857;52.270;6.804;2023-04-09T00:30:33;44.80;;;31.05;;
61903;SDS011;47857;52.270;6.804;2023-04-09T00:32:59;45.00;;;30.23;;
61903;SDS011;47857;52.270;6.804;2023-04-09T00:35:25;44.20;;;31.33;;
61903;SDS011;47857;52.270;6.804;2023-04-09T00:37:50;43.95;;;31.05;;
61903;SDS011;47857;52.270;6.804;2023-04-09T00:40:16;45.78;;;31.08;;
61903;SDS011;47857;52.270;6.804;2023-04-09T00:42:42;43.90;;;30.48;;
61903;SDS011;47857;52.270;6.804;2023-04-09T00:45:07;45.42;;;30.40;;
61903;SDS011;47857;52.270;6.804;2023-04-09T00:47:34;42.35;;;29.90;;
61903;SDS011;47857;52.270;6.804;2023-04-09T00:50:00;42.95;;;30.25;;
61903;SDS011;47857;52.270;6.804;2023-04-09T00:52:26;43.00;;;30.08;;
61903;SDS011;47857;52.270;6.804;2023-04-09T00:54:54;41.13;;;29.75;;
61903;SDS011;47857;52.270;6.804;2023-04-09T00:57:21;44.58;;;30.45;;
61903;SDS011;47857;52.270;6.804;2023-04-09T00:59:46;43.97;;;30.33;;
61903;SDS011;47857;52.270;6.804;2023-04-09T01:02:12;42.28;;;30.25;;
61903;SDS011;47857;52.270;6.804;2023-04-09T01:04:39;43.08;;;29.80;;
61903;SDS011;47857;52.270;6.804;2023-04-09T01:09:38;40.90;;;29.65;;
61903;SDS011;47857;52.270;6.804;2023-04-09T01:12:17;43.13;;;29.75;;
61903;SDS011;47857;52.270;6.804;2023-04-09T01:14:56;43.45;;;29.52;;
61903;SDS011;47857;52.270;6.804;2023-04-09T01:17:40;41.78;;;29.60;;
61903;SDS011;47857;52.270;6.804;2023-04-09T01:20:12;42.47;;;30.20;;
61903;SDS011;47857;52.270;6.804;2023-04-09T01:28:21;43.95;;;29.95;;
61903;SDS011;47857;52.270;6.804;2023-04-09T01:30:52;43.45;;;29.50;;
61903;SDS011;47857;52.270;6.804;2023-04-09T01:33:22;41.90;;;29.42;;
61903;SDS011;47857;52.270;6.804;2023-04-09T01:35:48;40.75;;;28.95;;
61903;SDS011;47857;52.270;6.804;2023-04-09T01:38:15;43.53;;;29.60;;
61903;SDS011;47857;52.270;6.804;2023-04-09T01:40:43;40.03;;;28.17;;
61903;SDS011;47857;52.270;6.804;2023-04-09T01:43:08;41.45;;;28.83;;
61903;SDS011;47857;52.270;6.804;2023-04-09T01:45:35;38.33;;;27.48;;
61903;SDS011;47857;52.270;6.804;2023-04-09T01:48:00;41.15;;;27.23;;
61903;SDS011;47857;52.270;6.804;2023-04-09T01:50:27;37.38;;;26.48;;
61903;SDS011;47857;52.270;6.804;2023-04-09T01:52:53;38.35;;;26.35;;
61903;SDS011;47857;52.270;6.804;2023-04-09T01:55:19;38.80;;;27.08;;
61903;SDS011;47857;52.270;6.804;2023-04-09T01:57:45;41.78;;;28.08;;
61903;SDS011;47857;52.270;6.804;2023-04-09T02:00:10;41.53;;;28.35;;
61903;SDS011;47857;52.270;6.804;2023-04-09T02:02:55;39.38;;;28.80;;
61903;SDS011;47857;52.270;6.804;2023-04-09T02:05:28;38.83;;;28.00;;
61903;SDS011;47857;52.270;6.804;2023-04-09T02:07:57;39.97;;;27.95;;
61903;SDS011;47857;52.270;6.804;2023-04-09T02:10:23;38.13;;;27.52;;
61903;SDS011;47857;52.270;6.804;2023-04-09T02:12:51;41.53;;;27.80;;
61903;SDS011;47857;52.270;6.804;2023-04-09T02:15:20;42.20;;;27.80;;
61903;SDS011;47857;52.270;6.804;2023-04-09T02:17:46;39.40;;;27.08;;
61903;SDS011;47857;52.270;6.804;2023-04-09T02:20:18;39.22;;;27.02;;
61903;SDS011;47857;52.270;6.804;2023-04-09T02:22:45;37.67;;;26.13;;
61903;SDS011;47857;52.270;6.804;2023-04-09T02:25:10;38.88;;;26.50;;
61903;SDS011;47857;52.270;6.804;2023-04-09T02:27:36;40.53;;;26.58;;
61903;SDS011;47857;52.270;6.804;2023-04-09T02:30:02;39.67;;;26.75;;
61903;SDS011;47857;52.270;6.804;2023-04-09T02:32:28;36.15;;;26.70;;
61903;SDS011;47857;52.270;6.804;2023-04-09T02:34:54;37.67;;;26.20;;
61903;SDS011;47857;52.270;6.804;2023-04-09T02:37:20;36.83;;;27.20;;
61903;SDS011;47857;52.270;6.804;2023-04-09T02:39:45;38.17;;;27.17;;
61903;SDS011;47857;52.270;6.804;2023-04-09T02:42:11;37.83;;;26.75;;
61903;SDS011;47857;52.270;6.804;2023-04-09T02:44:37;38.72;;;26.25;;
61903;SDS011;47857;52.270;6.804;2023-04-09T02:47:03;37.22;;;26.63;;
61903;SDS011;47857;52.270;6.804;2023-04-09T02:49:29;40.15;;;27.02;;
61903;SDS011;47857;52.270;6.804;2023-04-09T02:51:54;40.25;;;26.80;;
61903;SDS011;47857;52.270;6.804;2023-04-09T02:54:20;38.63;;;26.70;;
61903;SDS011;47857;52.270;6.804;2023-04-09T02:56:46;37.83;;;26.77;;
61903;SDS011;47857;52.270;6.804;2023-04-09T02:59:11;39.67;;;26.58;;
61903;SDS011;47857;52.270;6.804;2023-04-09T03:01:37;36.42;;;26.50;;
61903;SDS011;47857;52.270;6.804;2023-04-09T03:04:02;37.45;;;26.33;;
61903;SDS011;47857;52.270;6.804;2023-04-09T03:06:28;37.95;;;25.90;;
61903;SDS011;47857;52.270;6.804;2023-04-09T03:08:54;37.92;;;26.35;;
61903;SDS011;47857;52.270;6.804;2023-04-09T03:11:19;36.80;;;25.90;;
61903;SDS011;47857;52.270;6.804;2023-04-09T03:13:45;38.00;;;26.58;;
61903;SDS011;47857;52.270;6.804;2023-04-09T03:16:11;39.58;;;26.67;;
61903;SDS011;47857;52.270;6.804;2023-04-09T03:18:36;35.80;;;25.58;;
61903;SDS011;47857;52.270;6.804;2023-04-09T03:21:06;39.53;;;26.92;;
61903;SDS011;47857;52.270;6.804;2023-04-09T03:23:33;42.22;;;28.23;;
61903;SDS011;47857;52.270;6.804;2023-04-09T03:26:00;38.72;;;27.23;;
61903;SDS011;47857;52.270;6.804;2023-04-09T03:28:31;39.70;;;27.60;;
61903;SDS011;47857;52.270;6.804;2023-04-09T03:30:57;38.38;;;26.42;;
61903;SDS011;47857;52.270;6.804;2023-04-09T03:33:23;39.97;;;27.10;;
61903;SDS011;47857;52.270;6.804;2023-04-09T03:35:54;37.30;;;27.05;;
61903;SDS011;47857;52.270;6.804;2023-04-09T03:38:39;39.75;;;27.25;;
61903;SDS011;47857;52.270;6.804;2023-04-09T03:41:12;40.10;;;28.00;;
61903;SDS011;47857;52.270;6.804;2023-04-09T03:43:37;41.22;;;28.10;;
61903;SDS011;47857;52.270;6.804;2023-04-09T03:46:11;39.55;;;27.25;;
61903;SDS011;47857;52.270;6.804;2023-04-09T03:48:37;41.00;;;27.98;;
61903;SDS011;47857;52.270;6.804;2023-04-09T03:51:03;40.00;;;27.33;;
61903;SDS011;47857;52.270;6.804;2023-04-09T03:53:36;39.72;;;27.17;;
61903;SDS011;47857;52.270;6.804;2023-04-09T03:56:04;41.20;;;27.98;;
61903;SDS011;47857;52.270;6.804;2023-04-09T03:58:31;43.15;;;27.27;;
61903;SDS011;47857;52.270;6.804;2023-04-09T04:00:57;41.03;;;27.85;;
61903;SDS011;47857;52.270;6.804;2023-04-09T04:03:33;41.60;;;28.13;;
61903;SDS011;47857;52.270;6.804;2023-04-09T04:06:20;40.00;;;27.00;;
61903;SDS011;47857;52.270;6.804;2023-04-09T04:09:09;40.38;;;26.90;;
61903;SDS011;47857;52.270;6.804;2023-04-09T04:11:52;42.60;;;28.02;;
61903;SDS011;47857;52.270;6.804;2023-04-09T04:14:20;40.78;;;27.50;;
61903;SDS011;47857;52.270;6.804;2023-04-09T04:16:52;41.80;;;28.42;;
61903;SDS011;47857;52.270;6.804;2023-04-09T04:19:20;42.10;;;28.70;;
61903;SDS011;47857;52.270;6.804;2023-04-09T04:21:49;42.05;;;28.55;;
61903;SDS011;47857;52.270;6.804;2023-04-09T04:24:15;43.63;;;28.77;;
61903;SDS011;47857;52.270;6.804;2023-04-09T04:26:41;42.35;;;28.52;;
61903;SDS011;47857;52.270;6.804;2023-04-09T04:29:07;41.97;;;27.98;;
61903;SDS011;47857;52.270;6.804;2023-04-09T04:31:54;44.63;;;29.00;;
61903;SDS011;47857;52.270;6.804;2023-04-09T04:34:22;41.97;;;28.83;;
61903;SDS011;47857;52.270;6.804;2023-04-09T04:36:56;43.92;;;29.25;;
61903;SDS011;47857;52.270;6.804;2023-04-09T04:39:23;42.03;;;27.65;;
61903;SDS011;47857;52.270;6.804;2023-04-09T04:41:56;45.53;;;29.02;;
61903;SDS011;47857;52.270;6.804;2023-04-09T04:44:25;42.83;;;27.95;;
61903;SDS011;47857;52.270;6.804;2023-04-09T04:46:57;42.55;;;28.58;;
61903;SDS011;47857;52.270;6.804;2023-04-09T04:49:23;44.53;;;28.60;;
61903;SDS011;47857;52.270;6.804;2023-04-09T04:51:50;44.70;;;29.27;;
61903;SDS011;47857;52.270;6.804;2023-04-09T04:54:15;45.50;;;29.73;;
61903;SDS011;47857;52.270;6.804;2023-04-09T04:56:49;46.92;;;29.80;;
61903;SDS011;47857;52.270;6.804;2023-04-09T04:59:27;45.63;;;28.58;;
61903;SDS011;47857;52.270;6.804;2023-04-09T05:02:00;46.30;;;28.83;;
61903;SDS011;47857;52.270;6.804;2023-04-09T05:04:30;45.13;;;29.17;;
61903;SDS011;47857;52.270;6.804;2023-04-09T05:06:56;43.20;;;28.13;;
61903;SDS011;47857;52.270;6.804;2023-04-09T05:09:23;45.95;;;28.88;;
61903;SDS011;47857;52.270;6.804;2023-04-09T05:11:59;45.30;;;28.23;;
61903;SDS011;47857;52.270;6.804;2023-04-09T05:14:25;44.42;;;29.00;;
61903;SDS011;47857;52.270;6.804;2023-04-09T05:16:51;42.65;;;27.75;;
61903;SDS011;47857;52.270;6.804;2023-04-09T05:19:20;43.17;;;28.40;;
61903;SDS011;47857;52.270;6.804;2023-04-09T05:21:48;45.95;;;28.40;;
61903;SDS011;47857;52.270;6.804;2023-04-09T05:24:19;43.58;;;28.52;;
61903;SDS011;47857;52.270;6.804;2023-04-09T05:26:45;44.50;;;28.27;;
61903;SDS011;47857;52.270;6.804;2023-04-09T05:29:11;43.60;;;28.45;;
61903;SDS011;47857;52.270;6.804;2023-04-09T05:31:36;44.60;;;28.08;;
61903;SDS011;47857;52.270;6.804;2023-04-09T05:34:09;46.47;;;29.38;;
61903;SDS011;47857;52.270;6.804;2023-04-09T05:36:48;43.25;;;27.98;;
61903;SDS011;47857;52.270;6.804;2023-04-09T05:39:15;44.38;;;28.38;;
61903;SDS011;47857;52.270;6.804;2023-04-09T05:41:42;42.30;;;28.63;;
61903;SDS011;47857;52.270;6.804;2023-04-09T05:44:27;42.22;;;27.08;;
61903;SDS011;47857;52.270;6.804;2023-04-09T05:46:59;43.72;;;28.63;;
61903;SDS011;47857;52.270;6.804;2023-04-09T05:49:31;45.67;;;29.23;;
61903;SDS011;47857;52.270;6.804;2023-04-09T05:51:57;44.67;;;28.83;;
61903;SDS011;47857;52.270;6.804;2023-04-09T05:54:26;45.30;;;29.25;;
61903;SDS011;47857;52.270;6.804;2023-04-09T05:56:51;45.67;;;29.02;;
61903;SDS011;47857;52.270;6.804;2023-04-09T05:59:18;45.22;;;29.40;;
61903;SDS011;47857;52.270;6.804;2023-04-09T06:01:43;42.58;;;28.17;;
61903;SDS011;47857;52.270;6.804;2023-04-09T06:04:09;44.45;;;28.63;;
61903;SDS011;47857;52.270;6.804;2023-04-09T06:06:37;45.55;;;29.45;;
61903;SDS011;47857;52.270;6.804;2023-04-09T06:09:03;45.55;;;29.38;;
61903;SDS011;47857;52.270;6.804;2023-04-09T06:11:29;45.67;;;29.23;;
61903;SDS011;47857;52.270;6.804;2023-04-09T06:13:55;45.63;;;29.40;;
61903;SDS011;47857;52.270;6.804;2023-04-09T06:16:21;49.13;;;30.52;;
61903;SDS011;47857;52.270;6.804;2023-04-09T06:18:47;49.05;;;29.80;;
61903;SDS011;47857;52.270;6.804;2023-04-09T06:21:14;48.83;;;30.25;;
61903;SDS011;47857;52.270;6.804;2023-04-09T06:23:40;50.05;;;30.63;;
61903;SDS011;47857;52.270;6.804;2023-04-09T06:26:05;48.08;;;30.48;;
61903;SDS011;47857;52.270;6.804;2023-04-09T06:28:31;48.97;;;30.27;;
61903;SDS011;47857;52.270;6.804;2023-04-09T06:30:57;47.45;;;31.02;;
61903;SDS011;47857;52.270;6.804;2023-04-09T06:33:23;48.40;;;30.83;;
61903;SDS011;47857;52.270;6.804;2023-04-09T06:35:48;47.58;;;30.70;;
61903;SDS011;47857;52.270;6.804;2023-04-09T06:38:15;47.83;;;30.92;;
61903;SDS011;47857;52.270;6.804;2023-04-09T06:40:41;49.67;;;31.17;;
61903;SDS011;47857;52.270;6.804;2023-04-09T06:43:06;51.65;;;31.30;;
61903;SDS011;47857;52.270;6.804;2023-04-09T06:45:51;49.85;;;31.58;;
61903;SDS011;47857;52.270;6.804;2023-04-09T06:48:16;50.35;;;32.38;;
61903;SDS011;47857;52.270;6.804;2023-04-09T06:50:42;51.78;;;31.85;;
61903;SDS011;47857;52.270;6.804;2023-04-09T06:53:09;51.05;;;31.98;;
61903;SDS011;47857;52.270;6.804;2023-04-09T06:55:34;45.38;;;30.33;;
61903;SDS011;47857;52.270;6.804;2023-04-09T06:58:00;49.70;;;30.90;;
61903;SDS011;47857;52.270;6.804;2023-04-09T07:00:26;49.03;;;31.13;;
61903;SDS011;47857;52.270;6.804;2023-04-09T07:02:52;49.50;;;32.20;;
61903;SDS011;47857;52.270;6.804;2023-04-09T07:05:18;48.15;;;31.55;;
61903;SDS011;47857;52.270;6.804;2023-04-09T07:07:43;48.83;;;30.83;;
61903;SDS011;47857;52.270;6.804;2023-04-09T07:10:09;49.97;;;31.70;;
61903;SDS011;47857;52.270;6.804;2023-04-09T07:12:35;49.88;;;31.15;;
61903;SDS011;47857;52.270;6.804;2023-04-09T07:15:01;47.70;;;30.42;;
61903;SDS011;47857;52.270;6.804;2023-04-09T07:17:29;53.90;;;32.13;;
61903;SDS011;47857;52.270;6.804;2023-04-09T07:19:55;51.80;;;32.33;;
61903;SDS011;47857;52.270;6.804;2023-04-09T07:22:21;48.05;;;31.35;;
61903;SDS011;47857;52.270;6.804;2023-04-09T07:24:47;51.40;;;32.13;;
61903;SDS011;47857;52.270;6.804;2023-04-09T07:29:46;50.92;;;32.53;;
61903;SDS011;47857;52.270;6.804;2023-04-09T07:32:11;55.67;;;32.80;;
61903;SDS011;47857;52.270;6.804;2023-04-09T07:34:37;47.17;;;31.00;;
61903;SDS011;47857;52.270;6.804;2023-04-09T07:37:03;49.75;;;31.48;;
61903;SDS011;47857;52.270;6.804;2023-04-09T07:39:28;49.30;;;31.20;;
61903;SDS011;47857;52.270;6.804;2023-04-09T07:41:54;46.15;;;30.55;;
61903;SDS011;47857;52.270;6.804;2023-04-09T07:44:21;48.58;;;30.90;;
61903;SDS011;47857;52.270;6.804;2023-04-09T07:46:47;50.67;;;31.35;;
61903;SDS011;47857;52.270;6.804;2023-04-09T07:49:13;46.40;;;30.02;;
61903;SDS011;47857;52.270;6.804;2023-04-09T07:51:38;47.95;;;30.40;;
61903;SDS011;47857;52.270;6.804;2023-04-09T07:54:04;50.15;;;31.55;;
61903;SDS011;47857;52.270;6.804;2023-04-09T07:56:30;46.25;;;31.25;;
61903;SDS011;47857;52.270;6.804;2023-04-09T07:58:55;47.83;;;31.25;;
61903;SDS011;47857;52.270;6.804;2023-04-09T08:01:21;47.90;;;30.17;;
61903;SDS011;47857;52.270;6.804;2023-04-09T08:03:49;46.40;;;29.83;;
61903;SDS011;47857;52.270;6.804;2023-04-09T08:06:15;53.05;;;32.22;;
61903;SDS011;47857;52.270;6.804;2023-04-09T08:08:41;43.60;;;28.67;;
61903;SDS011;47857;52.270;6.804;2023-04-09T08:11:07;45.38;;;28.52;;
61903;SDS011;47857;52.270;6.804;2023-04-09T08:13:33;47.38;;;29.73;;
61903;SDS011;47857;52.270;6.804;2023-04-09T08:15:59;40.08;;;28.10;;
61903;SDS011;47857;52.270;6.804;2023-04-09T08:18:26;40.15;;;27.17;;
61903;SDS011;47857;52.270;6.804;2023-04-09T08:20:51;45.58;;;28.58;;
61903;SDS011;47857;52.270;6.804;2023-04-09T08:23:17;41.47;;;27.83;;
61903;SDS011;47857;52.270;6.804;2023-04-09T08:25:43;41.42;;;26.77;;
61903;SDS011;47857;52.270;6.804;2023-04-09T08:28:08;37.67;;;25.35;;
61903;SDS011;47857;52.270;6.804;2023-04-09T08:30:34;40.42;;;25.90;;
61903;SDS011;47857;52.270;6.804;2023-04-09T08:33:00;39.03;;;25.38;;
61903;SDS011;47857;52.270;6.804;2023-04-09T08:35:26;37.05;;;24.98;;
61903;SDS011;47857;52.270;6.804;2023-04-09T08:37:54;38.13;;;25.58;;
61903;SDS011;47857;52.270;6.804;2023-04-09T08:40:21;37.35;;;24.35;;
61903;SDS011;47857;52.270;6.804;2023-04-09T08:42:48;37.17;;;24.67;;
61903;SDS011;47857;52.270;6.804;2023-04-09T08:45:19;34.83;;;23.60;;
61903;SDS011;47857;52.270;6.804;2023-04-09T08:47:44;33.75;;;23.40;;
61903;SDS011;47857;52.270;6.804;2023-04-09T08:50:11;37.00;;;25.00;;
61903;SDS011;47857;52.270;6.804;2023-04-09T08:52:37;36.97;;;24.33;;
61903;SDS011;47857;52.270;6.804;2023-04-09T08:55:04;32.20;;;21.92;;
61903;SDS011;47857;52.270;6.804;2023-04-09T08:57:31;32.88;;;22.08;;
61903;SDS011;47857;52.270;6.804;2023-04-09T09:00:04;32.65;;;21.67;;
61903;SDS011;47857;52.270;6.804;2023-04-09T09:02:31;39.13;;;24.88;;
61903;SDS011;47857;52.270;6.804;2023-04-09T09:04:56;30.27;;;20.25;;
61903;SDS011;47857;52.270;6.804;2023-04-09T09:07:27;31.13;;;20.85;;
61903;SDS011;47857;52.270;6.804;2023-04-09T09:09:56;29.48;;;20.85;;
61903;SDS011;47857;52.270;6.804;2023-04-09T09:12:39;33.55;;;22.00;;
61903;SDS011;47857;52.270;6.804;2023-04-09T09:17:53;32.50;;;21.58;;
61903;SDS011;47857;52.270;6.804;2023-04-09T09:20:21;28.67;;;20.90;;
61903;SDS011;47857;52.270;6.804;2023-04-09T09:22:51;29.75;;;21.17;;
61903;SDS011;47857;52.270;6.804;2023-04-09T09:25:18;29.67;;;20.77;;
61903;SDS011;47857;52.270;6.804;2023-04-09T09:27:47;30.85;;;21.02;;
61903;SDS011;47857;52.270;6.804;2023-04-09T09:30:20;28.15;;;19.92;;
61903;SDS011;47857;52.270;6.804;2023-04-09T09:33:09;30.83;;;21.13;;
61903;SDS011;47857;52.270;6.804;2023-04-09T09:38:16;30.05;;;20.83;;
61903;SDS011;47857;52.270;6.804;2023-04-09T09:40:42;30.05;;;19.83;;
61903;SDS011;47857;52.270;6.804;2023-04-09T09:43:08;27.55;;;18.40;;
61903;SDS011;47857;52.270;6.804;2023-04-09T09:45:35;24.30;;;16.95;;
61903;SDS011;47857;52.270;6.804;2023-04-09T09:48:02;20.88;;;14.38;;
61903;SDS011;47857;52.270;6.804;2023-04-09T09:50:29;19.58;;;14.38;;
61903;SDS011;47857;52.270;6.804;2023-04-09T09:53:05;22.95;;;15.75;;
61903;SDS011;47857;52.270;6.804;2023-04-09T09:55:31;22.45;;;15.05;;
61903;SDS011;47857;52.270;6.804;2023-04-09T09:58:01;19.80;;;14.93;;
61903;SDS011;47857;52.270;6.804;2023-04-09T10:00:29;21.08;;;14.57;;
61903;SDS011;47857;52.270;6.804;2023-04-09T10:03:06;20.30;;;14.65;;
61903;SDS011;47857;52.270;6.804;2023-04-09T10:05:45;20.05;;;14.55;;
61903;SDS011;47857;52.270;6.804;2023-04-09T10:08:14;20.85;;;15.27;;
61903;SDS011;47857;52.270;6.804;2023-04-09T10:10:41;21.73;;;15.35;;
61903;SDS011;47857;52.270;6.804;2023-04-09T10:13:12;20.50;;;14.80;;
61903;SDS011;47857;52.270;6.804;2023-04-09T10:15:40;21.88;;;15.82;;
61903;SDS011;47857;52.270;6.804;2023-04-09T10:18:08;22.52;;;14.40;;
61903;SDS011;47857;52.270;6.804;2023-04-09T10:20:42;14.70;;;10.85;;
61903;SDS011;47857;52.270;6.804;2023-04-09T10:26:04;13.88;;;10.38;;
61903;SDS011;47857;52.270;6.804;2023-04-09T10:28:30;15.20;;;10.95;;
61903;SDS011;47857;52.270;6.804;2023-04-09T10:30:56;13.30;;;10.43;;
61903;SDS011;47857;52.270;6.804;2023-04-09T10:33:22;15.10;;;11.18;;
61903;SDS011;47857;52.270;6.804;2023-04-09T10:35:53;15.43;;;11.70;;
61903;SDS011;47857;52.270;6.804;2023-04-09T10:38:31;14.00;;;10.50;;
61903;SDS011;47857;52.270;6.804;2023-04-09T10:40:59;14.90;;;10.80;;
61903;SDS011;47857;52.270;6.804;2023-04-09T10:43:31;13.65;;;10.13;;
61903;SDS011;47857;52.270;6.804;2023-04-09T10:45:59;13.35;;;10.05;;
61903;SDS011;47857;52.270;6.804;2023-04-09T10:48:24;13.02;;;9.90;;
61903;SDS011;47857;52.270;6.804;2023-04-09T10:50:50;15.05;;;10.55;;
61903;SDS011;47857;52.270;6.804;2023-04-09T10:53:20;13.93;;;10.75;;
61903;SDS011;47857;52.270;6.804;2023-04-09T10:55:48;13.27;;;9.73;;
61903;SDS011;47857;52.270;6.804;2023-04-09T10:58:18;14.60;;;10.25;;
61903;SDS011;47857;52.270;6.804;2023-04-09T11:00:44;12.95;;;9.50;;
61903;SDS011;47857;52.270;6.804;2023-04-09T11:05:39;12.73;;;9.18;;
61903;SDS011;47857;52.270;6.804;2023-04-09T11:10:33;12.43;;;9.23;;
61903;SDS011;47857;52.270;6.804;2023-04-09T11:13:00;11.98;;;8.40;;
61903;SDS011;47857;52.270;6.804;2023-04-09T11:15:26;11.45;;;8.95;;
61903;SDS011;47857;52.270;6.804;2023-04-09T11:17:51;12.80;;;8.70;;
61903;SDS011;47857;52.270;6.804;2023-04-09T11:20:20;12.45;;;8.93;;
61903;SDS011;47857;52.270;6.804;2023-04-09T11:22:50;11.25;;;8.95;;
61903;SDS011;47857;52.270;6.804;2023-04-09T11:25:18;11.25;;;8.73;;
61903;SDS011;47857;52.270;6.804;2023-04-09T11:27:44;11.88;;;9.13;;
61903;SDS011;47857;52.270;6.804;2023-04-09T11:30:10;12.13;;;9.32;;
61903;SDS011;47857;52.270;6.804;2023-04-09T11:32:36;12.50;;;9.45;;
61903;SDS011;47857;52.270;6.804;2023-04-09T11:35:02;13.02;;;9.32;;
61903;SDS011;47857;52.270;6.804;2023-04-09T11:37:28;12.85;;;8.85;;
61903;SDS011;47857;52.270;6.804;2023-04-09T11:39:53;12.27;;;8.65;;
61903;SDS011;47857;52.270;6.804;2023-04-09T11:42:19;11.75;;;9.13;;
61903;SDS011;47857;52.270;6.804;2023-04-09T11:44:49;12.35;;;9.18;;
61903;SDS011;47857;52.270;6.804;2023-04-09T11:47:17;13.85;;;9.43;;
61903;SDS011;47857;52.270;6.804;2023-04-09T11:49:43;13.32;;;9.80;;
61903;SDS011;47857;52.270;6.804;2023-04-09T11:52:10;12.27;;;9.57;;
61903;SDS011;47857;52.270;6.804;2023-04-09T11:54:36;12.35;;;9.43;;
61903;SDS011;47857;52.270;6.804;2023-04-09T11:57:05;12.85;;;9.55;;
61903;SDS011;47857;52.270;6.804;2023-04-09T11:59:31;13.43;;;10.07;;
61903;SDS011;47857;52.270;6.804;2023-04-09T12:01:56;11.93;;;9.55;;
61903;SDS011;47857;52.270;6.804;2023-04-09T12:04:23;12.40;;;9.65;;
61903;SDS011;47857;52.270;6.804;2023-04-09T12:06:48;12.50;;;9.70;;
61903;SDS011;47857;52.270;6.804;2023-04-09T12:09:14;14.18;;;10.07;;
61903;SDS011;47857;52.270;6.804;2023-04-09T12:11:43;12.93;;;10.38;;
61903;SDS011;47857;52.270;6.804;2023-04-09T12:14:13;15.18;;;10.50;;
61903;SDS011;47857;52.270;6.804;2023-04-09T12:16:43;14.05;;;10.55;;
61903;SDS011;47857;52.270;6.804;2023-04-09T12:19:09;12.85;;;9.90;;
61903;SDS011;47857;52.270;6.804;2023-04-09T12:21:48;12.95;;;10.02;;
61903;SDS011;47857;52.270;6.804;2023-04-09T12:24:19;13.30;;;9.93;;
61903;SDS011;47857;52.270;6.804;2023-04-09T12:26:48;13.00;;;9.90;;
61903;SDS011;47857;52.270;6.804;2023-04-09T12:29:14;13.73;;;10.13;;
61903;SDS011;47857;52.270;6.804;2023-04-09T12:31:41;14.38;;;10.93;;
61903;SDS011;47857;52.270;6.804;2023-04-09T12:34:07;14.75;;;10.30;;
61903;SDS011;47857;52.270;6.804;2023-04-09T12:36:33;12.38;;;9.48;;
61903;SDS011;47857;52.270;6.804;2023-04-09T12:38:59;13.32;;;10.35;;
61903;SDS011;47857;52.270;6.804;2023-04-09T12:41:24;12.13;;;9.63;;
61903;SDS011;47857;52.270;6.804;2023-04-09T12:43:50;11.25;;;9.10;;
61903;SDS011;47857;52.270;6.804;2023-04-09T12:46:19;12.35;;;9.38;;
61903;SDS011;47857;52.270;6.804;2023-04-09T12:48:45;11.75;;;9.25;;
61903;SDS011;47857;52.270;6.804;2023-04-09T12:51:11;12.95;;;9.73;;
61903;SDS011;47857;52.270;6.804;2023-04-09T12:53:37;13.07;;;9.60;;
61903;SDS011;47857;52.270;6.804;2023-04-09T12:56:04;12.93;;;9.40;;
61903;SDS011;47857;52.270;6.804;2023-04-09T12:58:30;13.23;;;9.25;;
61903;SDS011;47857;52.270;6.804;2023-04-09T13:00:56;11.05;;;8.93;;
61903;SDS011;47857;52.270;6.804;2023-04-09T13:03:22;11.30;;;9.07;;
61903;SDS011;47857;52.270;6.804;2023-04-09T13:05:48;10.85;;;8.70;;
61903;SDS011;47857;52.270;6.804;2023-04-09T13:08:14;14.57;;;9.80;;
61903;SDS011;47857;52.270;6.804;2023-04-09T13:10:40;12.50;;;9.68;;
61903;SDS011;47857;52.270;6.804;2023-04-09T13:13:06;12.57;;;8.63;;
61903;SDS011;47857;52.270;6.804;2023-04-09T13:15:40;11.98;;;8.80;;
61903;SDS011;47857;52.270;6.804;2023-04-09T13:18:12;11.75;;;9.07;;
61903;SDS011;47857;52.270;6.804;2023-04-09T13:20:38;12.48;;;9.40;;
61903;SDS011;47857;52.270;6.804;2023-04-09T13:23:04;11.90;;;9.07;;
61903;SDS011;47857;52.270;6.804;2023-04-09T13:25:30;11.57;;;9.50;;
61903;SDS011;47857;52.270;6.804;2023-04-09T13:27:55;13.90;;;10.13;;
61903;SDS011;47857;52.270;6.804;2023-04-09T13:30:21;13.93;;;10.00;;
61903;SDS011;47857;52.270;6.804;2023-04-09T13:32:47;10.85;;;8.60;;
61903;SDS011;47857;52.270;6.804;2023-04-09T13:35:12;10.85;;;8.55;;
61903;SDS011;47857;52.270;6.804;2023-04-09T13:37:38;13.00;;;9.98;;
61903;SDS011;47857;52.270;6.804;2023-04-09T13:40:04;12.68;;;8.55;;
61903;SDS011;47857;52.270;6.804;2023-04-09T13:42:30;12.30;;;9.45;;
61903;SDS011;47857;52.270;6.804;2023-04-09T13:44:56;11.90;;;9.05;;
61903;SDS011;47857;52.270;6.804;2023-04-09T13:47:22;11.73;;;9.05;;
61903;SDS011;47857;52.270;6.804;2023-04-09T13:49:48;11.18;;;8.82;;
61903;SDS011;47857;52.270;6.804;2023-04-09T13:52:15;11.40;;;9.05;;
61903;SDS011;47857;52.270;6.804;2023-04-09T13:54:41;11.70;;;9.15;;
61903;SDS011;47857;52.270;6.804;2023-04-09T13:57:07;11.05;;;8.90;;
61903;SDS011;47857;52.270;6.804;2023-04-09T13:59:32;10.30;;;8.35;;
61903;SDS011;47857;52.270;6.804;2023-04-09T14:01:58;10.75;;;8.27;;
61903;SDS011;47857;52.270;6.804;2023-04-09T14:04:24;11.77;;;9.02;;
61903;SDS011;47857;52.270;6.804;2023-04-09T14:06:50;10.63;;;8.50;;
61903;SDS011;47857;52.270;6.804;2023-04-09T14:09:15;11.95;;;8.30;;
61903;SDS011;47857;52.270;6.804;2023-04-09T14:11:41;10.35;;;8.70;;
61903;SDS011;47857;52.270;6.804;2023-04-09T14:14:06;12.30;;;8.55;;
61903;SDS011;47857;52.270;6.804;2023-04-09T14:16:32;10.93;;;8.80;;
61903;SDS011;47857;52.270;6.804;2023-04-09T14:18:58;10.93;;;8.40;;
61903;SDS011;47857;52.270;6.804;2023-04-09T14:21:23;12.02;;;8.82;;
61903;SDS011;47857;52.270;6.804;2023-04-09T14:23:50;10.43;;;8.35;;
61903;SDS011;47857;52.270;6.804;2023-04-09T14:26:16;11.50;;;8.20;;
61903;SDS011;47857;52.270;6.804;2023-04-09T14:28:43;12.43;;;9.48;;
61903;SDS011;47857;52.270;6.804;2023-04-09T14:31:09;12.35;;;9.57;;
61903;SDS011;47857;52.270;6.804;2023-04-09T14:33:35;13.23;;;9.70;;
61903;SDS011;47857;52.270;6.804;2023-04-09T14:36:00;12.88;;;9.43;;
61903;SDS011;47857;52.270;6.804;2023-04-09T14:38:26;11.40;;;9.35;;
61903;SDS011;47857;52.270;6.804;2023-04-09T14:40:51;12.77;;;8.93;;
61903;SDS011;47857;52.270;6.804;2023-04-09T14:43:17;11.95;;;9.63;;
61903;SDS011;47857;52.270;6.804;2023-04-09T14:45:43;12.40;;;9.55;;
61903;SDS011;47857;52.270;6.804;2023-04-09T14:48:08;17.75;;;11.00;;
61903;SDS011;47857;52.270;6.804;2023-04-09T14:50:34;28.38;;;13.27;;